createdAt,value
2023-04-11T00:02:20.147Z,26.10
2023-04-11T00:05:07.101Z,27.92
2023-04-11T00:07:52.615Z,26.48
2023-04-11T00:10:38.559Z,29.50
2023-04-11T00:13:26.572Z,27.00
2023-04-11T00:16:12.600Z,27.48
2023-04-11T00:18:58.554Z,31.88
2023-04-11T00:21:45.248Z,23.30
2023-04-11T00:24:31.206Z,25.83
2023-04-11T00:27:16.942Z,28.60
2023-04-11T00:30:05.411Z,28.38
2023-04-11T00:32:51.305Z,32.03
2023-04-11T00:35:39.471Z,35.67
2023-04-11T00:38:25.484Z,25.02
2023-04-11T00:41:11.033Z,34.17
2023-04-11T00:43:57.757Z,26.75
2023-04-11T00:46:46.481Z,29.17
2023-04-11T00:49:32.449Z,27.48
2023-04-11T00:52:19.419Z,28.33
2023-04-11T00:55:07.021Z,27.52
2023-04-11T00:57:55.117Z,23.45
2023-04-11T01:00:41.515Z,35.08
2023-04-11T01:03:30.212Z,21.90
2023-04-11T01:06:19.673Z,29.42
2023-04-11T01:09:05.397Z,28.98
2023-04-11T01:11:51.995Z,27.10
2023-04-11T01:14:38.604Z,29.23
2023-04-11T01:17:25.861Z,29.85
2023-04-11T01:20:13.463Z,28.63
2023-04-11T01:23:01.991Z,33.85
2023-04-11T01:25:49.558Z,29.92
2023-04-11T01:28:35.323Z,21.58
2023-04-11T01:31:22.990Z,31.23
2023-04-11T01:34:12.800Z,27.75
2023-04-11T01:36:58.940Z,28.67
2023-04-11T01:39:44.472Z,29.30
2023-04-11T01:42:33.459Z,33.15
2023-04-11T01:45:20.965Z,32.10
2023-04-11T01:48:08.410Z,32.35
2023-04-11T01:50:56.221Z,30.33
2023-04-11T01:53:41.858Z,33.08
2023-04-11T01:56:27.865Z,23.23
2023-04-11T01:59:15.546Z,26.17
2023-04-11T02:02:01.285Z,19.92
2023-04-11T02:04:47.072Z,24.27
2023-04-11T02:07:33.983Z,26.80
2023-04-11T02:10:19.504Z,23.02
2023-04-11T02:13:05.258Z,31.90
2023-04-11T02:15:53.024Z,18.13
2023-04-11T02:18:39.032Z,26.60
2023-04-11T02:21:24.621Z,22.35
2023-04-11T02:24:10.095Z,21.10
2023-04-11T02:26:56.606Z,9.25
2023-04-11T02:29:43.997Z,20.63
2023-04-11T02:32:31.386Z,12.88
2023-04-11T02:35:17.572Z,16.98
2023-04-11T02:38:02.954Z,15.05
2023-04-11T02:40:49.383Z,18.50
2023-04-11T02:43:35.572Z,25.65
2023-04-11T02:46:22.503Z,12.50
2023-04-11T02:49:10.094Z,18.08
2023-04-11T02:51:56.646Z,16.45
2023-04-11T02:54:42.471Z,13.02
2023-04-11T02:57:28.235Z,10.73
2023-04-11T03:00:15.536Z,15.25
2023-04-11T03:03:12.099Z,18.52
2023-04-11T03:06:03.444Z,16.58
2023-04-11T03:08:50.178Z,16.25
2023-04-11T03:11:36.181Z,17.08
2023-04-11T03:14:23.085Z,12.00
2023-04-11T03:17:08.463Z,18.33
2023-04-11T03:19:55.265Z,18.20
2023-04-11T03:22:43.874Z,19.10
2023-04-11T03:25:29.687Z,15.75
2023-04-11T03:28:15.700Z,25.98
2023-04-11T03:31:01.494Z,14.07
2023-04-11T03:33:47.325Z,14.15
2023-04-11T03:36:33.029Z,18.35
2023-04-11T03:39:25.515Z,20.80
2023-04-11T03:42:12.729Z,19.83
2023-04-11T03:44:58.828Z,9.82
2023-04-11T03:47:45.250Z,11.57
2023-04-11T03:50:33.889Z,5.63
2023-04-11T03:53:21.751Z,5.28
2023-04-11T03:56:12.643Z,9.40
2023-04-11T03:58:58.643Z,8.65
2023-04-11T04:01:49.605Z,11.02
2023-04-11T04:04:36.672Z,14.93
2023-04-11T04:07:35.454Z,14.18
2023-04-11T04:10:34.729Z,11.05
2023-04-11T04:13:22.142Z,15.18
2023-04-11T04:16:21.149Z,12.68
2023-04-11T04:19:12.268Z,9.80
2023-04-11T04:22:01.803Z,12.45
2023-04-11T04:24:52.938Z,9.57
2023-04-11T04:27:44.368Z,7.47
2023-04-11T04:30:33.951Z,10.70
2023-04-11T04:33:28.099Z,9.07
2023-04-11T04:36:17.932Z,6.80
2023-04-11T04:39:05.526Z,13.38
2023-04-11T04:42:01.537Z,9.25
2023-04-11T04:44:55.828Z,5.03
2023-04-11T04:47:43.030Z,7.95
2023-04-11T04:50:29.353Z,15.85
2023-04-11T04:53:17.670Z,12.27
2023-04-11T04:56:08.628Z,11.32
2023-04-11T04:58:59.998Z,10.10
2023-04-11T05:01:51.693Z,10.48
2023-04-11T05:04:50.222Z,8.63
2023-04-11T05:07:36.522Z,8.45
2023-04-11T05:10:22.738Z,4.43
2023-04-11T05:13:09.091Z,10.82
2023-04-11T05:15:56.190Z,7.22
2023-04-11T05:18:45.468Z,8.75
2023-04-11T05:21:33.113Z,7.97
2023-04-11T05:24:19.246Z,7.38
2023-04-11T05:27:04.877Z,13.20
2023-04-11T05:29:51.479Z,8.93
2023-04-11T05:32:37.901Z,6.65
2023-04-11T05:35:24.378Z,9.40
2023-04-11T05:38:14.663Z,7.63
2023-04-11T05:41:00.435Z,10.07
2023-04-11T05:43:46.140Z,7.85
2023-04-11T05:46:35.793Z,7.75
2023-04-11T05:49:21.976Z,5.63
2023-04-11T05:52:08.041Z,6.18
2023-04-11T05:54:55.456Z,8.95
2023-04-11T05:57:41.281Z,8.93
2023-04-11T06:00:30.985Z,7.43
2023-04-11T06:03:17.786Z,7.05
2023-04-11T06:06:04.508Z,9.35
2023-04-11T06:08:51.261Z,7.50
2023-04-11T06:11:39.000Z,8.23
2023-04-11T06:14:24.854Z,8.48
2023-04-11T06:17:10.659Z,6.53
2023-04-11T06:19:56.122Z,5.50
2023-04-11T06:22:41.827Z,5.00
2023-04-11T06:25:27.246Z,7.05
2023-04-11T06:28:14.412Z,3.75
2023-04-11T06:30:59.862Z,7.10
2023-04-11T06:33:45.398Z,13.13
2023-04-11T06:36:31.549Z,7.50
2023-04-11T06:39:17.594Z,5.88
2023-04-11T06:42:03.834Z,6.50
2023-04-11T06:44:53.017Z,5.05
2023-04-11T06:47:38.909Z,7.15
2023-04-11T06:50:24.305Z,11.00
2023-04-11T06:53:10.440Z,7.22
2023-04-11T06:55:56.024Z,9.07
2023-04-11T06:58:41.572Z,8.32
2023-04-11T07:01:35.428Z,8.38
2023-04-11T07:04:22.139Z,8.77
2023-04-11T07:07:08.072Z,9.98
2023-04-11T07:09:53.930Z,6.57
2023-04-11T07:12:39.488Z,10.57
2023-04-11T07:15:25.323Z,8.32
2023-04-11T07:18:13.164Z,8.40
2023-04-11T07:20:59.024Z,6.53
2023-04-11T07:23:44.874Z,11.15
2023-04-11T07:26:32.615Z,7.10
2023-04-11T07:29:18.658Z,7.35
2023-04-11T07:32:04.417Z,9.68
2023-04-11T07:34:52.088Z,9.52
2023-04-11T07:37:38.378Z,10.02
2023-04-11T07:40:23.919Z,8.45
2023-04-11T07:43:09.814Z,6.20
2023-04-11T07:45:57.276Z,9.82
2023-04-11T07:48:43.272Z,9.98
2023-04-11T07:51:31.372Z,13.00
2023-04-11T07:54:17.768Z,7.13
2023-04-11T07:57:03.645Z,5.82
2023-04-11T07:59:49.723Z,6.68
2023-04-11T08:02:35.668Z,9.07
2023-04-11T08:05:21.979Z,7.82
2023-04-11T08:08:09.568Z,7.10
2023-04-11T08:10:55.054Z,5.80
2023-04-11T08:13:40.778Z,11.30
2023-04-11T08:16:26.669Z,5.50
2023-04-11T08:19:13.171Z,5.85
2023-04-11T08:21:59.332Z,7.65
2023-04-11T08:24:46.852Z,10.10
2023-04-11T08:27:32.791Z,10.02
2023-04-11T08:30:18.606Z,9.93
2023-04-11T08:33:04.864Z,5.43
2023-04-11T08:35:50.937Z,5.45
2023-04-11T08:38:36.679Z,10.45
2023-04-11T08:41:23.874Z,8.77
2023-04-11T08:44:11.907Z,12.85
2023-04-11T08:46:57.870Z,10.43
2023-04-11T08:49:43.516Z,7.60
2023-04-11T08:52:30.964Z,11.65
2023-04-11T08:55:16.827Z,7.43
2023-04-11T08:58:03.973Z,7.72
2023-04-11T09:00:49.945Z,8.90
2023-04-11T09:03:51.542Z,5.68
2023-04-11T09:06:40.449Z,7.10
2023-04-11T09:09:31.030Z,7.97
2023-04-11T09:12:21.673Z,10.73
2023-04-11T09:15:20.027Z,6.60
2023-04-11T09:18:05.986Z,7.55
2023-04-11T09:20:59.400Z,6.90
2023-04-11T09:23:45.668Z,7.75
2023-04-11T09:26:31.307Z,10.13
2023-04-11T09:29:36.958Z,10.95
2023-04-11T09:32:33.767Z,10.75
2023-04-11T09:35:24.044Z,5.75
2023-04-11T09:38:10.063Z,5.82
2023-04-11T09:40:56.632Z,5.97
2023-04-11T09:43:50.778Z,5.57
2023-04-11T09:46:37.449Z,5.10
2023-04-11T09:49:25.789Z,5.43
2023-04-11T09:52:11.877Z,5.25
2023-04-11T09:54:58.103Z,4.57
2023-04-11T09:57:47.709Z,4.22
2023-04-11T10:00:33.572Z,2.55
2023-04-11T10:03:22.816Z,4.05
2023-04-11T10:06:22.926Z,5.72
2023-04-11T10:09:11.487Z,6.40
2023-04-11T10:11:57.591Z,4.05
2023-04-11T10:14:45.349Z,6.07
2023-04-11T10:17:31.152Z,7.85
2023-04-11T10:20:47.353Z,6.07
2023-04-11T10:24:08.795Z,3.25
2023-04-11T10:26:57.921Z,5.03
2023-04-11T10:29:51.824Z,5.53
2023-04-11T10:32:38.234Z,3.83
2023-04-11T10:35:23.925Z,3.63
2023-04-11T10:38:48.763Z,5.97
2023-04-11T10:41:36.388Z,7.63
2023-04-11T10:44:22.626Z,7.28
2023-04-11T10:47:17.642Z,6.97
2023-04-11T10:50:32.523Z,5.05
2023-04-11T10:53:37.014Z,6.18
2023-04-11T10:56:52.703Z,3.60
2023-04-11T10:59:59.365Z,5.03
2023-04-11T11:02:46.494Z,7.13
2023-04-11T11:05:32.268Z,5.82
2023-04-11T11:08:27.243Z,3.78
2023-04-11T11:11:13.997Z,5.05
2023-04-11T11:14:01.108Z,6.95
2023-04-11T11:16:48.682Z,6.50
2023-04-11T11:19:35.550Z,3.38
2023-04-11T11:22:28.610Z,7.03
2023-04-11T11:25:14.483Z,3.58
2023-04-11T11:28:05.555Z,7.45
2023-04-11T11:30:54.880Z,7.30
2023-04-11T11:33:43.092Z,4.50
2023-04-11T11:36:29.375Z,6.70
2023-04-11T11:39:15.690Z,4.82
2023-04-11T11:42:01.668Z,7.70
2023-04-11T11:44:47.525Z,5.32
2023-04-11T11:47:42.056Z,5.10
2023-04-11T11:50:30.603Z,4.93
2023-04-11T11:53:16.861Z,5.57
2023-04-11T11:56:12.778Z,5.70
2023-04-11T11:58:58.973Z,7.22
2023-04-11T12:01:46.668Z,5.05
2023-04-11T12:04:33.510Z,5.63
2023-04-11T12:07:22.939Z,4.45
2023-04-11T12:10:11.967Z,7.40
2023-04-11T12:12:58.087Z,7.05
2023-04-11T12:15:46.728Z,2.75
2023-04-11T12:18:32.793Z,7.80
2023-04-11T12:21:18.913Z,9.82
2023-04-11T12:24:07.448Z,9.73
2023-04-11T12:27:06.455Z,7.70
2023-04-11T12:29:53.712Z,5.05
2023-04-11T12:32:39.404Z,9.43
2023-04-11T12:35:24.959Z,5.65
2023-04-11T12:38:13.244Z,8.02
2023-04-11T12:41:26.372Z,10.52
2023-04-11T12:44:08.043Z,9.95
2023-04-11T12:46:53.623Z,11.73
2023-04-11T12:49:39.971Z,6.43
2023-04-11T12:52:25.946Z,3.83
2023-04-11T12:55:13.823Z,7.40
2023-04-11T12:58:02.162Z,6.18
2023-04-11T13:00:47.810Z,3.33
2023-04-11T13:03:33.735Z,5.35
2023-04-11T13:06:20.244Z,2.92
2023-04-11T13:09:07.790Z,5.55
2023-04-11T13:11:53.544Z,4.15
2023-04-11T13:14:40.778Z,4.65
2023-04-11T13:17:26.612Z,5.05
2023-04-11T13:20:12.981Z,3.70
2023-04-11T13:22:58.977Z,4.47
2023-04-11T13:25:45.000Z,8.43
2023-04-11T13:28:33.689Z,2.33
2023-04-11T13:31:26.820Z,3.25
2023-04-11T13:34:13.048Z,10.20
2023-04-11T13:36:59.063Z,3.92
2023-04-11T13:39:44.826Z,4.30
2023-04-11T13:42:30.611Z,3.70
2023-04-11T13:45:16.375Z,3.42
2023-04-11T13:48:04.128Z,13.75
2023-04-11T13:50:49.760Z,9.75
2023-04-11T13:53:35.454Z,9.02
2023-04-11T13:56:21.058Z,4.40
2023-04-11T13:59:06.686Z,6.70
2023-04-11T14:01:52.950Z,7.05
2023-04-11T14:04:40.122Z,4.00
2023-04-11T14:07:26.155Z,5.93
2023-04-11T14:10:12.087Z,4.22
2023-04-11T14:12:58.055Z,6.25
2023-04-11T14:15:44.978Z,4.07
2023-04-11T14:18:30.876Z,3.03
2023-04-11T14:21:18.258Z,3.67
2023-04-11T14:24:04.012Z,5.15
2023-04-11T14:26:50.345Z,6.05
2023-04-11T14:29:37.618Z,3.25
2023-04-11T14:32:23.541Z,4.10
2023-04-11T14:35:09.971Z,4.50
2023-04-11T14:37:57.845Z,3.78
2023-04-11T14:40:44.346Z,3.92
2023-04-11T14:43:30.174Z,2.90
2023-04-11T14:46:16.066Z,3.58
2023-04-11T14:49:02.150Z,3.92
2023-04-11T14:51:48.309Z,3.05
2023-04-11T14:54:35.843Z,5.10
2023-04-11T14:57:23.012Z,3.13
2023-04-11T15:00:15.487Z,4.68
2023-04-11T15:03:01.654Z,2.97
2023-04-11T15:05:47.773Z,5.07
2023-04-11T15:08:33.971Z,4.50
2023-04-11T15:11:21.305Z,4.05
2023-04-11T15:14:10.030Z,5.80
2023-04-11T15:16:55.842Z,11.35
2023-04-11T15:19:42.164Z,4.20
2023-04-11T15:22:28.062Z,5.25
2023-04-11T15:25:15.055Z,3.20
2023-04-11T15:28:02.294Z,3.72
2023-04-11T15:30:50.018Z,3.88
2023-04-11T15:33:36.971Z,4.53
2023-04-11T15:36:23.380Z,4.07
2023-04-11T15:39:09.398Z,3.45
2023-04-11T15:41:54.908Z,7.82
2023-04-11T15:44:42.426Z,1.83
2023-04-11T15:47:28.109Z,5.80
2023-04-11T15:50:13.735Z,3.70
2023-04-11T15:53:00.115Z,4.15
2023-04-11T15:55:47.790Z,1.55
2023-04-11T15:58:33.990Z,4.10
2023-04-11T16:01:25.726Z,2.97
2023-04-11T16:04:11.835Z,5.78
2023-04-11T16:06:58.342Z,4.30
2023-04-11T16:09:43.905Z,4.43
2023-04-11T16:12:29.637Z,5.90
2023-04-11T16:15:15.652Z,6.30
2023-04-11T16:18:03.100Z,7.90
2023-04-11T16:20:49.233Z,5.20
2023-04-11T16:23:34.682Z,3.75
2023-04-11T16:26:20.690Z,6.15
2023-04-11T16:29:06.537Z,6.28
2023-04-11T16:31:52.723Z,10.20
2023-04-11T16:34:40.632Z,7.82
2023-04-11T16:37:26.925Z,7.63
2023-04-11T16:40:12.545Z,7.15
2023-04-11T16:42:58.219Z,2.45
2023-04-11T16:45:43.945Z,9.55
2023-04-11T16:48:31.721Z,8.85
2023-04-11T16:51:21.358Z,4.75
2023-04-11T16:54:10.838Z,7.93
2023-04-11T16:56:57.398Z,5.97
2023-04-11T16:59:43.180Z,7.10
2023-04-11T17:02:29.899Z,9.82
2023-04-11T17:05:19.138Z,8.20
2023-04-11T17:08:06.329Z,3.25
2023-04-11T17:10:52.101Z,5.90
2023-04-11T17:13:38.627Z,9.73
2023-04-11T17:16:24.275Z,6.55
2023-04-11T17:19:11.025Z,9.20
2023-04-11T17:21:57.598Z,9.63
2023-04-11T17:24:44.735Z,4.70
2023-04-11T17:27:30.775Z,8.57
2023-04-11T17:30:16.910Z,10.70
2023-04-11T17:33:02.798Z,8.23
2023-04-11T17:35:48.534Z,6.95
2023-04-11T17:38:34.235Z,6.13
2023-04-11T17:41:21.524Z,7.97
2023-04-11T17:44:07.220Z,10.52
2023-04-11T17:46:52.766Z,8.48
2023-04-11T17:49:39.024Z,4.07
2023-04-11T17:52:25.475Z,6.65
2023-04-11T17:55:13.039Z,9.63
2023-04-11T17:58:00.226Z,10.10
2023-04-11T18:00:55.684Z,5.20
2023-04-11T18:03:44.300Z,7.03
2023-04-11T18:06:34.232Z,15.13
2023-04-11T18:09:20.615Z,17.42
2023-04-11T18:12:06.455Z,10.75
2023-04-11T18:14:54.285Z,15.20
2023-04-11T18:17:41.338Z,10.73
2023-04-11T18:20:27.380Z,9.70
2023-04-11T18:23:13.327Z,8.07
2023-04-11T18:25:59.056Z,8.15
2023-04-11T18:28:44.824Z,4.72
2023-04-11T18:31:35.160Z,10.25
2023-04-11T18:34:21.608Z,9.70
2023-04-11T18:37:07.663Z,10.60
2023-04-11T18:39:53.771Z,14.85
2023-04-11T18:42:40.408Z,13.75
2023-04-11T18:45:26.226Z,17.42
2023-04-11T18:48:13.697Z,15.45
2023-04-11T18:51:00.220Z,8.68
2023-04-11T18:53:45.871Z,14.02
2023-04-11T18:56:31.817Z,10.57
2023-04-11T18:59:23.783Z,8.07
2023-04-11T19:02:14.067Z,8.07
2023-04-11T19:05:02.054Z,17.45
2023-04-11T19:07:48.053Z,10.45
2023-04-11T19:10:34.171Z,9.77
2023-04-11T19:13:19.888Z,5.22
2023-04-11T19:16:06.336Z,7.93
2023-04-11T19:18:52.030Z,11.73
2023-04-11T19:21:39.697Z,12.43
2023-04-11T19:24:25.451Z,8.43
2023-04-11T19:27:11.601Z,9.88
2023-04-11T19:29:57.678Z,7.93
2023-04-11T19:32:45.683Z,10.07
2023-04-11T19:35:31.715Z,9.60
2023-04-11T19:38:18.790Z,10.18
2023-04-11T19:41:11.850Z,6.63
2023-04-11T19:43:58.103Z,6.88
2023-04-11T19:46:44.336Z,5.45
2023-04-11T19:49:29.933Z,8.18
2023-04-11T19:52:15.603Z,9.57
2023-04-11T19:55:02.800Z,9.00
2023-04-11T19:57:48.751Z,9.70
2023-04-11T20:00:36.293Z,5.85
2023-04-11T20:03:22.586Z,7.88
2023-04-11T20:06:09.634Z,6.57
2023-04-11T20:08:55.626Z,10.65
2023-04-11T20:11:43.747Z,9.82
2023-04-11T20:14:29.196Z,4.78
2023-04-11T20:17:15.876Z,7.78
2023-04-11T20:20:06.071Z,5.45
2023-04-11T20:22:51.579Z,6.65
2023-04-11T20:25:37.628Z,8.23
2023-04-11T20:28:25.658Z,4.80
2023-04-11T20:31:14.125Z,7.40
2023-04-11T20:33:59.992Z,10.98
2023-04-11T20:36:46.721Z,6.32
2023-04-11T20:39:33.067Z,6.63
2023-04-11T20:42:20.569Z,7.25
2023-04-11T20:45:11.006Z,5.43
2023-04-11T20:47:59.680Z,9.03
2023-04-11T20:50:47.215Z,9.73
2023-04-11T20:53:32.790Z,7.25
2023-04-11T20:56:18.539Z,7.75
2023-04-11T20:59:04.550Z,6.28
2023-04-11T21:01:53.584Z,8.45
2023-04-11T21:04:39.413Z,9.85
2023-04-11T21:07:25.035Z,5.32
2023-04-11T21:10:12.300Z,6.30
2023-04-11T21:12:58.211Z,7.20
2023-04-11T21:15:43.668Z,7.80
2023-04-11T21:18:30.578Z,8.52
2023-04-11T21:21:16.431Z,4.93
2023-04-11T21:24:03.412Z,6.82
2023-04-11T21:26:49.259Z,9.57
2023-04-11T21:29:35.066Z,7.68
2023-04-11T21:32:20.822Z,6.97
2023-04-11T21:35:09.490Z,8.80
2023-04-11T21:37:55.136Z,8.38
2023-04-11T21:40:40.603Z,8.18
2023-04-11T21:43:26.750Z,10.65
2023-04-11T21:46:12.529Z,5.60
2023-04-11T21:48:58.459Z,4.78
2023-04-11T21:51:45.742Z,7.22
2023-04-11T21:54:34.158Z,4.55
2023-04-11T21:57:19.903Z,6.10
2023-04-11T22:00:11.301Z,5.05
2023-04-11T22:03:00.440Z,7.32
2023-04-11T22:05:47.127Z,9.30
2023-04-11T22:08:42.201Z,11.13
2023-04-11T22:11:27.755Z,7.75
2023-04-11T22:14:22.281Z,6.45
2023-04-11T22:17:12.162Z,8.10
2023-04-11T22:20:00.661Z,5.50
2023-04-11T22:22:46.511Z,5.32
2023-04-11T22:25:34.683Z,8.32
2023-04-11T22:28:22.315Z,4.32
2023-04-11T22:31:09.549Z,4.10
2023-04-11T22:33:55.517Z,5.68
2023-04-11T22:36:41.075Z,5.30
2023-04-11T22:39:26.731Z,6.78
2023-04-11T22:42:13.577Z,5.47
2023-04-11T22:44:59.767Z,7.15
2023-04-11T22:47:48.317Z,4.15
2023-04-11T22:50:37.434Z,4.15
2023-04-11T22:53:25.023Z,5.15
2023-04-11T22:56:11.036Z,4.95
2023-04-11T22:58:58.542Z,7.45
2023-04-11T23:01:44.760Z,8.95
2023-04-11T23:04:32.450Z,5.85
2023-04-11T23:07:18.697Z,8.80
2023-04-11T23:10:06.481Z,7.05
2023-04-11T23:12:52.710Z,3.72
2023-04-11T23:20:37.417Z,8.38
2023-04-11T23:23:23.075Z,7.47
2023-04-11T23:26:09.293Z,4.43
2023-04-11T23:28:56.374Z,8.73
2023-04-11T23:31:42.268Z,6.68
2023-04-11T23:34:28.267Z,3.70
2023-04-11T23:37:16.887Z,7.65
2023-04-11T23:40:10.824Z,8.90
2023-04-11T23:42:57.949Z,6.50
2023-04-11T23:45:43.905Z,8.50
2023-04-11T23:48:29.229Z,10.88
2023-04-11T23:51:15.980Z,7.88
2023-04-11T23:54:03.266Z,6.93
2023-04-11T23:56:49.296Z,7.97
2023-04-11T23:59:34.899Z,10.57
